Погода Скалицана 2 недели

Трнавский край, Словакия

16 - 29 июня
  • 16июня
    Сегодня
    +12°
    +25°
    Ясно и безоблачно
    ВремяПогодаТемператураВлажностьДавлениеВетер, м/сВероятность осадков
    02:00Пасмурно, дожди с грозами+17°C97 %743 мм2.0 м/с81 %
    05:00Пасмурно, дождь+16°C96 %742 мм1.4 м/с86 %
    08:00Небольшая облачность, ливень+16°C88 %743 мм2.9 м/с71 %
    11:00Облачно с прояснениями+20°C66 %744 мм3.9 м/с40 %
    14:00Ясно и безоблачно+23°C49 %744 мм3.2 м/с23 %
    17:00Облачно с прояснениями+24°C48 %743 мм2.5 м/с11 %
    20:00Ясно и безоблачно+21°C70 %744 мм1.6 м/с2 %
    23:00Ясно и безоблачно+17°C76 %744 мм1.1 м/с2 %
  • 17июня
    Понедельник
    +19°
    +28°
    Практически безоблачно
    ВремяПогодаТемператураВлажностьДавлениеВетер, м/сВероятность осадков
    02:00Ясно и безоблачно+14°C84 %745 мм1.6 м/с2 %
    05:00Ясно и безоблачно+13°C82 %745 мм1.7 м/с2 %
    08:00Ясно и безоблачно+19°C73 %747 мм0.1 м/с2 %
    11:00Облачно с прояснениями+24°C54 %747 мм1.8 м/с2 %
    14:00Практически безоблачно+27°C51 %747 мм2.1 м/с5 %
    17:00Облачно с прояснениями+27°C50 %746 мм1.8 м/с2 %
    20:00Облачно с прояснениями+25°C73 %747 мм1.5 м/с6 %
    23:00Ясно и безоблачно+20°C74 %747 мм2.4 м/с2 %
  • 18июня
    Вторник
    +20°
    +31°
    Облачно с прояснениями
    ВремяПогодаТемператураВлажностьДавлениеВетер, м/сВероятность осадков
    02:00Облачно с прояснениями+19°C75 %747 мм2.7 м/с3 %
    05:00Ясно и безоблачно+19°C72 %747 мм3.2 м/с8 %
    08:00Практически безоблачно+22°C71 %748 мм1.6 м/с6 %
    11:00Ясно и безоблачно+27°C60 %748 мм3.0 м/с3 %
    14:00Облачно с прояснениями+29°C51 %748 мм3.3 м/с2 %
    17:00Практически безоблачно+30°C48 %747 мм3.6 м/с2 %
    20:00Небольшая облачность+27°C62 %746 мм3.2 м/с2 %
    23:00Небольшая облачность+23°C68 %746 мм3.9 м/с2 %
  • 19июня
    Среда
    +14°
    +30°
    Ясно и безоблачно
    ВремяПогодаТемператураВлажностьДавлениеВетер, м/сВероятность осадков
    02:00Небольшая облачность+22°C69 %746 мм4.8 м/с2 %
    05:00Ясно и безоблачно+21°C72 %745 мм4.8 м/с2 %
    08:00Ясно и безоблачно+23°C71 %745 мм3.9 м/с2 %
    11:00Ясно и безоблачно+27°C58 %745 мм4.3 м/с2 %
    14:00Ясно и безоблачно+29°C52 %745 мм3.4 м/с6 %
    17:00Ясно и безоблачно+29°C52 %745 мм2.5 м/с8 %
    20:00Небольшая облачность+27°C67 %746 мм1.9 м/с17 %
    23:00Небольшая облачность+21°C79 %747 мм3.1 м/с5 %
  • 20июня
    Четверг
    +18°
    +26°
    Небольшая облачность
    ВремяПогодаТемператураВлажностьДавлениеВетер, м/сВероятность осадков
    02:00Облачно с прояснениями+18°C84 %749 мм5.5 м/с2 %
    05:00Облачно с прояснениями+15°C83 %749 мм5.3 м/с4 %
    08:00Ясно и безоблачно+18°C73 %751 мм4.9 м/с2 %
    11:00Ясно и безоблачно+23°C59 %751 мм2.6 м/с4 %
    14:00Небольшая облачность+25°C49 %751 мм2.3 м/с10 %
    17:00Облачно с прояснениями+26°C51 %749 мм1.8 м/с3 %
    20:00Облачно с прояснениями+23°C68 %748 мм1.6 м/с2 %
    23:00Облачно с прояснениями+19°C79 %748 мм1.6 м/с8 %
Мы используем cookies
Соглашаюсь